Time;durP1;ratioP1;P1;durP2;ratioP2;P2;SDS_P1;SDS_P2;PMS_P1;PMS_P2;Temp;Humidity;BMP_temperature;BMP_pressure;BME280_temperature;BME280_humidity;BME280_pressure;Samples;Min_cycle;Max_cycle;Signal;HPM_P1;HPM_P2
2023/07/02 00:00:06;;;;;;;36.07;18.37;;;;;;;18.51;80.88;98984.28;4203450;28;20228;-77
2023/07/02 00:02:34;;;;;;;30.20;17.63;;;;;;;18.64;80.37;98994.22;4195559;28;20286;-73
2023/07/02 00:05:00;;;;;;;32.17;17.27;;;;;;;18.56;80.50;98989.88;4206327;28;20246;-73
2023/07/02 00:07:27;;;;;;;31.53;17.63;;;;;;;18.40;81.15;98980.47;4194561;28;20232;-73
2023/07/02 00:09:54;;;;;;;31.30;18.93;;;;;;;18.33;81.56;98983.28;4206273;28;20805;-73
2023/07/02 00:12:20;;;;;;;33.63;17.50;;;;;;;18.33;81.54;98979.72;4215698;28;20237;-73
2023/07/02 00:14:47;;;;;;;33.63;19.27;;;;;;;18.14;82.38;98976.22;4210446;28;20325;-73
2023/07/02 00:17:13;;;;;;;34.33;18.50;;;;;;;18.08;82.36;98975.25;4206448;28;20252;-75
2023/07/02 00:19:41;;;;;;;29.50;18.17;;;;;;;18.23;82.00;98972.09;4205951;28;20267;-73
2023/07/02 00:22:09;;;;;;;32.23;18.13;;;;;;;18.07;82.31;98979.03;4215059;28;20237;-73
2023/07/02 00:24:36;;;;;;;36.97;18.93;;;;;;;18.04;82.66;98982.25;4208964;28;20243;-74
2023/07/02 00:27:02;;;;;;;33.50;19.53;;;;;;;18.17;82.19;98976.59;4208597;28;23380;-74
2023/07/02 00:29:29;;;;;;;34.30;17.97;;;;;;;18.15;82.20;98975.16;4212666;28;21678;-72
2023/07/02 00:31:56;;;;;;;37.07;18.47;;;;;;;18.17;81.89;98978.47;4209982;28;20561;-73
2023/07/02 00:34:23;;;;;;;34.70;19.60;;;;;;;18.15;81.73;98977.88;4192062;28;20232;-76
2023/07/02 00:36:49;;;;;;;37.13;19.57;;;;;;;18.15;81.81;98975.97;4207363;28;20252;-74
2023/07/02 00:39:17;;;;;;;41.73;18.20;;;;;;;18.17;81.48;98971.09;4219358;28;20301;-72
2023/07/02 00:41:46;;;;;;;31.83;18.50;;;;;;;18.09;82.05;98979.66;4205500;28;20243;-75
2023/07/02 00:44:13;;;;;;;33.50;18.87;;;;;;;18.00;82.46;98970.94;4214708;28;22568;-72
2023/07/02 00:46:40;;;;;;;30.47;18.43;;;;;;;18.04;82.16;98977.59;4217038;28;25657;-75
2023/07/02 00:49:08;;;;;;;32.07;17.80;;;;;;;18.02;82.13;98977.00;4206580;28;20242;-72
2023/07/02 00:51:34;;;;;;;31.87;18.67;;;;;;;18.04;81.43;98966.66;4182480;28;20299;-75
2023/07/02 00:54:01;;;;;;;30.47;17.90;;;;;;;18.03;81.65;98962.25;4210051;28;20243;-74
2023/07/02 00:56:28;;;;;;;33.23;18.37;;;;;;;17.97;81.88;98968.66;4221434;28;20580;-74
2023/07/02 00:58:58;;;;;;;31.93;17.73;;;;;;;17.93;82.29;98964.69;4224350;28;21810;-74
2023/07/02 01:01:27;;;;;;;33.23;16.93;;;;;;;17.95;82.17;98967.19;4205778;28;20313;-73
2023/07/02 01:03:57;;;;;;;32.57;18.23;;;;;;;17.85;82.29;98963.09;4194874;28;20302;-74
2023/07/02 01:06:25;;;;;;;35.97;19.20;;;;;;;17.81;82.40;98958.31;4210537;28;20243;-76
2023/07/02 01:08:56;;;;;;;30.67;18.87;;;;;;;17.93;81.83;98964.69;4188114;28;23294;-72
2023/07/02 01:11:47;;;;;;;32.43;17.73;;;;;;;17.92;82.25;98962.16;4205647;28;20239;-74
2023/07/02 01:14:18;;;;;;;31.13;18.30;;;;;;;17.80;82.70;98965.69;4207045;28;20451;-73
2023/07/02 01:16:47;;;;;;;30.53;17.87;;;;;;;17.79;82.13;98960.47;4197730;28;20272;-73
2023/07/02 01:19:19;;;;;;;33.87;18.77;;;;;;;17.75;82.25;98962.81;4207383;28;21125;-76
2023/07/02 01:21:49;;;;;;;31.37;18.40;;;;;;;17.67;82.52;98963.16;4192701;28;20757;-76
2023/07/02 01:24:17;;;;;;;34.20;18.77;;;;;;;17.73;82.44;98960.31;4205236;28;21313;-73
2023/07/02 01:26:45;;;;;;;33.57;18.97;;;;;;;17.77;82.24;98954.38;4206591;28;20244;-74
2023/07/02 01:29:14;;;;;;;32.07;18.90;;;;;;;17.71;82.35;98956.94;4210300;28;20869;-73
2023/07/02 01:31:40;;;;;;;30.50;17.83;;;;;;;17.65;82.79;98955.16;4205828;28;20239;-73
2023/07/02 01:34:10;;;;;;;30.83;18.67;;;;;;;17.69;82.65;98942.69;4193377;28;20250;-72
2023/07/02 01:36:37;;;;;;;31.20;18.60;;;;;;;17.69;82.66;98941.84;4222824;28;20271;-74
2023/07/02 01:39:04;;;;;;;32.20;19.27;;;;;;;17.74;82.85;98947.47;4212900;28;21166;-75
2023/07/02 01:41:45;;;;;;;37.53;20.57;;;;;;;17.76;82.51;98942.56;4197431;28;23089;-74
2023/07/02 01:44:12;;;;;;;34.20;19.80;;;;;;;17.68;83.10;98942.91;4197682;28;20582;-72
2023/07/02 01:46:38;;;;;;;34.47;19.23;;;;;;;17.68;83.13;98945.63;4234221;28;20236;-74
2023/07/02 01:49:05;;;;;;;32.83;18.60;;;;;;;17.68;83.03;98935.53;4202445;28;20239;-73
2023/07/02 01:51:33;;;;;;;32.93;19.77;;;;;;;17.76;82.85;98945.31;4205241;28;20228;-75
2023/07/02 01:54:00;;;;;;;35.03;19.10;;;;;;;17.63;83.39;98934.56;4207639;28;20232;-72
2023/07/02 01:56:27;;;;;;;37.10;20.97;;;;;;;17.50;83.75;98936.41;4214237;28;20247;-73
2023/07/02 01:58:53;;;;;;;36.63;20.07;;;;;;;17.55;83.56;98935.72;4195916;28;21189;-74
2023/07/02 02:01:20;;;;;;;33.67;19.83;;;;;;;17.64;83.15;98934.31;4215290;28;20233;-73
2023/07/02 02:03:47;;;;;;;34.00;19.47;;;;;;;17.65;83.16;98937.91;4215176;28;20874;-72
2023/07/02 02:06:13;;;;;;;32.43;19.43;;;;;;;17.65;83.16;98930.50;4220649;28;20308;-74
2023/07/02 02:08:40;;;;;;;36.70;19.97;;;;;;;17.69;82.89;98925.41;4208736;28;21458;-74
2023/07/02 02:11:06;;;;;;;33.80;19.13;;;;;;;17.70;82.85;98929.81;4207489;28;20322;-74
2023/07/02 02:13:34;;;;;;;37.07;19.23;;;;;;;17.69;82.95;98931.75;4197981;28;20246;-74
2023/07/02 02:16:01;;;;;;;35.13;20.07;;;;;;;17.71;82.46;98924.13;4206149;28;20629;-74
2023/07/02 02:18:27;;;;;;;31.80;18.07;;;;;;;17.78;82.55;98925.94;4208524;28;20937;-74
2023/07/02 02:20:54;;;;;;;39.63;20.20;;;;;;;17.81;82.27;98923.59;4193729;28;20655;-75
2023/07/02 02:23:20;;;;;;;30.63;18.73;;;;;;;17.82;82.12;98927.13;4211003;28;20231;-74
2023/07/02 02:25:47;;;;;;;31.47;18.40;;;;;;;17.94;81.39;98922.53;4211695;28;21715;-74
2023/07/02 02:28:13;;;;;;;32.23;17.37;;;;;;;17.93;81.56;98922.78;4217132;28;20232;-74
2023/07/02 02:30:40;;;;;;;29.03;17.50;;;;;;;17.88;81.40;98920.72;4207700;28;20328;-73
2023/07/02 02:33:08;;;;;;;26.90;17.07;;;;;;;17.80;81.76;98924.66;4191718;28;20231;-74
2023/07/02 02:35:34;;;;;;;28.17;17.13;;;;;;;17.86;81.57;98925.63;4220072;28;20245;-73
2023/07/02 02:38:02;;;;;;;29.57;18.13;;;;;;;17.87;81.30;98919.91;4201685;28;20925;-73
2023/07/02 02:40:29;;;;;;;30.33;17.00;;;;;;;17.83;81.47;98926.06;4202814;28;20342;-73
2023/07/02 02:42:56;;;;;;;29.60;17.67;;;;;;;17.87;81.57;98921.78;4221188;28;20331;-75
2023/07/02 02:45:22;;;;;;;27.87;16.93;;;;;;;18.01;80.76;98926.03;4212440;28;21191;-75
2023/07/02 02:47:49;;;;;;;27.13;16.77;;;;;;;17.93;80.80;98920.88;4217591;28;21089;-75
2023/07/02 02:50:15;;;;;;;31.87;17.40;;;;;;;17.99;80.48;98921.88;4204611;28;20246;-75
2023/07/02 02:52:42;;;;;;;30.53;17.67;;;;;;;18.00;80.05;98924.41;4222780;28;20335;-73
2023/07/02 02:55:10;;;;;;;28.53;16.40;;;;;;;18.02;80.17;98924.16;4232727;28;20360;-74
2023/07/02 02:57:37;;;;;;;29.23;17.27;;;;;;;18.10;79.76;98920.22;4211049;28;20375;-73
2023/07/02 03:00:05;;;;;;;31.40;16.70;;;;;;;18.25;78.86;98922.53;4218073;28;20232;-74
2023/07/02 03:02:31;;;;;;;29.07;17.27;;;;;;;18.28;78.51;98919.34;4231895;28;20246;-74
2023/07/02 03:05:02;;;;;;;24.37;15.60;;;;;;;18.21;78.68;98913.97;4226693;28;20306;-74
2023/07/02 03:07:29;;;;;;;28.33;16.47;;;;;;;18.29;78.34;98912.75;4211722;28;21191;-75
2023/07/02 03:09:55;;;;;;;26.87;15.23;;;;;;;18.29;78.15;98905.41;4220275;28;20342;-74
2023/07/02 03:12:22;;;;;;;24.33;15.10;;;;;;;18.35;77.90;98911.84;4205229;28;20668;-74
2023/07/02 03:14:54;;;;;;;27.37;15.63;;;;;;;18.36;77.82;98908.00;4209845;28;20236;-74
2023/07/02 03:17:21;;;;;;;23.90;14.23;;;;;;;18.36;77.55;98911.59;4220798;28;20242;-72
2023/07/02 03:19:48;;;;;;;22.93;13.93;;;;;;;18.34;77.39;98907.44;4212581;28;21816;-74
2023/07/02 03:22:15;;;;;;;24.77;14.87;;;;;;;18.51;76.74;98910.31;4237995;28;20526;-74
2023/07/02 03:24:41;;;;;;;23.17;13.77;;;;;;;18.57;76.26;98900.31;4203527;28;20235;-74
2023/07/02 03:27:09;;;;;;;24.93;14.13;;;;;;;18.46;76.59;98902.78;4204823;28;21006;-72
2023/07/02 03:29:38;;;;;;;28.70;14.37;;;;;;;18.52;76.08;98907.31;4201221;28;20402;-75
2023/07/02 03:32:05;;;;;;;24.03;14.33;;;;;;;18.57;75.94;98912.09;4218921;28;20842;-72
2023/07/02 03:34:32;;;;;;;23.33;13.80;;;;;;;18.60;75.98;98899.81;4236983;28;20232;-73
2023/07/02 03:36:59;;;;;;;23.43;12.63;;;;;;;18.65;75.43;98897.22;4228193;28;22440;-75
2023/07/02 03:39:25;;;;;;;23.80;14.13;;;;;;;18.71;75.50;98901.75;4225998;28;21971;-73
2023/07/02 03:41:52;;;;;;;22.23;13.13;;;;;;;18.69;75.15;98903.88;4195291;28;21557;-74
2023/07/02 03:44:19;;;;;;;19.63;13.37;;;;;;;18.74;75.04;98906.72;4228373;28;20299;-73
2023/07/02 03:46:46;;;;;;;24.30;13.57;;;;;;;18.89;74.32;98903.50;4232432;28;20240;-74
2023/07/02 03:49:13;;;;;;;21.33;13.77;;;;;;;18.79;74.47;98908.75;4217786;28;20232;-74
2023/07/02 03:51:40;;;;;;;22.23;13.87;;;;;;;18.76;74.49;98895.53;4206314;28;25834;-75
2023/07/02 03:54:06;;;;;;;25.13;13.50;;;;;;;18.91;73.85;98898.63;4240786;28;20229;-77
2023/07/02 03:56:34;;;;;;;20.67;13.30;;;;;;;19.00;73.33;98908.16;4240326;28;20347;-73
2023/07/02 03:59:00;;;;;;;19.93;12.87;;;;;;;18.99;73.34;98900.19;4212298;28;20753;-73
2023/07/02 04:01:27;;;;;;;23.70;12.43;;;;;;;18.99;72.48;98900.19;4203755;28;20310;-73
2023/07/02 04:03:54;;;;;;;22.07;12.60;;;;;;;19.05;72.68;98898.41;4235324;28;21522;-74
2023/07/02 04:06:21;;;;;;;18.43;11.50;;;;;;;19.03;72.54;98890.41;4244956;28;20254;-74
2023/07/02 04:08:48;;;;;;;20.63;11.67;;;;;;;19.04;72.22;98902.22;4214799;28;21007;-73
2023/07/02 04:11:15;;;;;;;22.67;11.77;;;;;;;19.08;71.38;98896.00;4220257;28;21568;-74
2023/07/02 04:13:42;;;;;;;23.43;11.57;;;;;;;19.21;71.33;98894.06;4236239;28;20315;-75
2023/07/02 04:16:09;;;;;;;17.60;11.77;;;;;;;19.19;71.29;98893.47;4223097;28;20838;-73
2023/07/02 04:18:35;;;;;;;20.40;11.63;;;;;;;19.24;70.60;98894.41;4215121;28;20304;-73
2023/07/02 04:21:02;;;;;;;20.20;11.97;;;;;;;19.24;70.52;98882.63;4221716;28;20238;-72
2023/07/02 04:23:29;;;;;;;18.50;11.47;;;;;;;19.24;70.40;98883.44;4219393;28;20233;-73
2023/07/02 04:25:56;;;;;;;18.87;11.30;;;;;;;19.31;70.01;98886.88;4197390;28;20240;-72
2023/07/02 04:28:43;;;;;;;24.47;11.17;;;;;;;19.45;69.90;98892.94;4221136;28;20532;-74
2023/07/02 04:31:10;;;;;;;19.03;11.70;;;;;;;19.35;69.98;98895.44;4207656;28;20461;-74
2023/07/02 04:33:37;;;;;;;21.07;11.67;;;;;;;19.11;71.05;98894.69;4207634;28;22901;-76
2023/07/02 04:36:04;;;;;;;15.93;10.70;;;;;;;19.15;73.07;98907.69;4214109;28;20243;-75
2023/07/02 04:38:30;;;;;;;17.00;10.53;;;;;;;19.13;71.71;98903.50;4210617;28;20242;-74
2023/07/02 04:41:01;;;;;;;18.53;10.90;;;;;;;19.17;71.60;98912.91;4217254;28;20297;-74
2023/07/02 04:43:31;;;;;;;17.83;9.83;;;;;;;19.23;70.82;98909.19;4213220;28;20535;-73
2023/07/02 04:45:57;;;;;;;24.33;13.67;;;;;;;19.17;70.85;98912.91;4205639;28;20279;-72
2023/07/02 04:48:24;;;;;;;18.30;10.50;;;;;;;19.29;69.56;98913.75;4221824;28;20299;-75
2023/07/02 04:50:50;;;;;;;21.83;11.10;;;;;;;19.25;70.21;98915.28;4198512;28;20237;-75
2023/07/02 04:53:17;;;;;;;20.40;11.17;;;;;;;19.23;70.02;98911.94;4222860;28;20244;-73
2023/07/02 04:55:44;;;;;;;15.60;9.73;;;;;;;19.32;69.46;98910.50;4202169;28;20247;-76
2023/07/02 04:58:11;;;;;;;17.20;10.53;;;;;;;19.12;70.25;98905.41;4202217;28;20703;-75
2023/07/02 05:00:37;;;;;;;14.90;9.80;;;;;;;19.29;69.32;98905.50;4203612;28;20662;-72
2023/07/02 05:03:04;;;;;;;15.27;9.47;;;;;;;19.31;68.51;98908.81;4214739;28;21618;-73
2023/07/02 05:05:31;;;;;;;15.90;9.77;;;;;;;19.41;68.53;98907.38;4207972;28;20449;-74
2023/07/02 05:07:58;;;;;;;15.70;9.67;;;;;;;19.30;68.58;98898.91;4205217;28;20243;-73
2023/07/02 05:10:24;;;;;;;18.73;9.97;;;;;;;19.28;67.87;98908.47;4214050;28;20926;-74
2023/07/02 05:12:51;;;;;;;15.77;8.60;;;;;;;19.26;67.67;98905.97;4212210;28;20269;-75
2023/07/02 05:15:18;;;;;;;14.60;8.70;;;;;;;19.39;66.72;98906.78;4184998;28;20673;-73
2023/07/02 05:17:44;;;;;;;14.17;8.73;;;;;;;19.33;67.13;98911.34;4210208;28;25254;-73
2023/07/02 05:20:11;;;;;;;12.73;8.43;;;;;;;19.37;66.46;98914.44;4218787;28;20291;-73
2023/07/02 05:22:38;;;;;;;15.90;8.27;;;;;;;19.29;66.45;98908.25;4204239;28;20980;-74
2023/07/02 05:25:05;;;;;;;13.70;8.50;;;;;;;19.53;65.87;98910.91;4206670;28;20236;-73
2023/07/02 05:27:31;;;;;;;14.00;8.53;;;;;;;19.49;66.15;98915.22;4201969;28;20429;-73
2023/07/02 05:29:58;;;;;;;13.83;8.93;;;;;;;19.44;66.67;98913.22;4209406;28;23386;-73
2023/07/02 05:32:24;;;;;;;14.50;7.67;;;;;;;19.50;66.18;98916.91;4197390;28;20241;-73
2023/07/02 05:34:51;;;;;;;13.53;8.07;;;;;;;19.63;66.01;98913.03;4217245;28;20232;-72
2023/07/02 05:37:17;;;;;;;20.10;7.87;;;;;;;19.83;64.96;98918.06;4218219;28;20231;-73
2023/07/02 05:39:44;;;;;;;12.87;8.40;;;;;;;19.89;64.40;98917.13;4195002;28;20235;-73
2023/07/02 05:42:11;;;;;;;14.80;7.50;;;;;;;19.78;64.59;98910.59;4203723;28;20243;-73
2023/07/02 05:44:37;;;;;;;17.47;7.87;;;;;;;19.83;64.30;98915.31;4206986;28;21325;-72
2023/07/02 05:47:04;;;;;;;12.57;7.77;;;;;;;19.79;64.37;98914.97;4212637;28;20387;-74
2023/07/02 05:49:31;;;;;;;14.40;7.50;;;;;;;19.85;64.16;98918.69;4199652;28;21802;-73
2023/07/02 05:51:57;;;;;;;13.73;7.10;;;;;;;19.91;63.27;98925.13;4219891;28;20228;-73
2023/07/02 05:54:24;;;;;;;14.93;7.57;;;;;;;19.85;63.43;98920.63;4212507;28;22919;-73
2023/07/02 05:56:50;;;;;;;16.33;7.43;;;;;;;19.69;64.02;98920.28;4200474;28;20433;-76
2023/07/02 05:59:18;;;;;;;14.83;7.20;;;;;;;19.85;63.44;98921.44;4190160;28;20246;-74
2023/07/02 06:01:45;;;;;;;21.33;7.80;;;;;;;19.73;63.98;98926.13;4206035;28;20235;-73
2023/07/02 06:04:11;;;;;;;15.83;8.17;;;;;;;19.93;63.64;98925.72;4206296;28;20232;-75
2023/07/02 06:06:38;;;;;;;12.20;7.07;;;;;;;19.87;63.99;98923.94;4197447;28;20430;-75
2023/07/02 06:09:05;;;;;;;17.67;7.90;;;;;;;19.83;64.44;98931.78;4215792;28;20233;-73
2023/07/02 06:11:31;;;;;;;17.07;7.63;;;;;;;19.75;65.08;98929.47;4212028;28;20240;-74
2023/07/02 06:13:58;;;;;;;14.20;7.47;;;;;;;19.75;65.01;98934.97;4206142;28;20301;-74
2023/07/02 06:16:25;;;;;;;15.67;7.87;;;;;;;19.66;65.32;98929.00;4201429;28;22312;-74
2023/07/02 06:18:52;;;;;;;14.13;7.40;;;;;;;19.71;65.51;98942.84;4213664;28;20236;-73
2023/07/02 06:21:19;;;;;;;14.13;7.90;;;;;;;19.64;65.41;98939.38;4208313;28;21052;-73
2023/07/02 06:23:46;;;;;;;17.07;7.83;;;;;;;19.63;65.88;98938.56;4187412;28;20223;-73
2023/07/02 06:26:13;;;;;;;17.60;7.53;;;;;;;19.72;65.52;98949.97;4209516;28;20400;-72
2023/07/02 06:28:39;;;;;;;18.93;8.03;;;;;;;19.61;65.31;98945.38;4190654;28;20609;-75
2023/07/02 06:31:06;;;;;;;17.70;8.43;;;;;;;19.62;65.48;98938.81;4204802;28;20299;-74
2023/07/02 06:33:33;;;;;;;12.37;7.70;;;;;;;19.84;65.61;98939.00;4219736;28;20231;-74
2023/07/02 06:36:00;;;;;;;20.00;7.83;;;;;;;20.11;64.72;98938.41;4200322;28;21701;-72
2023/07/02 06:38:26;;;;;;;13.37;7.40;;;;;;;20.40;64.26;98952.09;4199769;28;20231;-72
2023/07/02 06:40:53;;;;;;;12.30;7.17;;;;;;;20.64;63.71;98950.00;4201581;28;20287;-75
2023/07/02 06:43:19;;;;;;;13.43;7.73;;;;;;;20.86;62.69;98949.25;4213865;28;20624;-74
2023/07/02 06:45:46;;;;;;;21.70;7.87;;;;;;;20.33;64.12;98944.00;4211414;28;20231;-73
2023/07/02 06:48:16;;;;;;;17.50;7.30;;;;;;;20.14;65.39;98945.31;4209301;28;20282;-72
2023/07/02 06:50:46;;;;;;;13.07;7.37;;;;;;;20.01;65.53;98940.94;4217985;28;20300;-73
2023/07/02 06:53:13;;;;;;;19.93;8.03;;;;;;;20.12;65.26;98951.06;4192924;28;20310;-73
2023/07/02 06:55:40;;;;;;;11.93;7.07;;;;;;;20.35;64.78;98943.75;4190079;28;20295;-74
2023/07/02 06:58:08;;;;;;;12.17;6.27;;;;;;;20.31;65.15;98948.94;4215598;28;20244;-72
2023/07/02 07:00:37;;;;;;;13.83;6.73;;;;;;;20.42;64.97;98952.69;4211116;28;20428;-73
2023/07/02 07:03:04;;;;;;;9.73;6.33;;;;;;;20.40;65.55;98950.16;4175118;28;22812;-74
2023/07/02 07:05:31;;;;;;;12.03;6.60;;;;;;;20.71;64.81;98958.91;4189920;28;20263;-72
2023/07/02 07:07:59;;;;;;;14.57;6.07;;;;;;;20.39;65.86;98975.97;4210298;28;20246;-73
2023/07/02 07:10:26;;;;;;;10.47;5.70;;;;;;;19.84;68.88;98965.59;4200510;28;20232;-73
2023/07/02 07:12:52;;;;;;;11.70;6.30;;;;;;;19.68;70.19;98973.53;4217362;28;20247;-73
2023/07/02 07:15:19;;;;;;;10.70;5.53;;;;;;;19.53;71.58;98967.72;4195489;28;20458;-73
2023/07/02 07:17:46;;;;;;;10.60;6.20;;;;;;;19.26;73.95;98969.09;4191994;28;21124;-75
2023/07/02 07:20:12;;;;;;;13.07;6.37;;;;;;;18.83;77.24;98970.28;4214222;28;20247;-75
2023/07/02 07:22:39;;;;;;;12.07;6.53;;;;;;;18.72;78.83;98965.59;4212570;28;20735;-75
2023/07/02 07:25:06;;;;;;;19.60;7.17;;;;;;;18.34;80.83;98975.94;4209792;28;20239;-74
2023/07/02 07:27:33;;;;;;;14.47;7.20;;;;;;;18.36;80.60;98965.53;4214098;28;20243;-74
2023/07/02 07:30:00;;;;;;;12.17;6.43;;;;;;;18.24;80.77;98970.16;4211100;28;20410;-75
2023/07/02 07:32:26;;;;;;;11.23;6.10;;;;;;;18.26;81.04;98973.50;4207299;28;20282;-73
2023/07/02 07:34:53;;;;;;;10.93;6.03;;;;;;;18.47;80.02;98983.94;4212836;28;20234;-73
2023/07/02 07:37:19;;;;;;;13.20;6.17;;;;;;;18.41;79.41;98976.66;4211213;28;20235;-76
2023/07/02 07:39:46;;;;;;;12.07;6.27;;;;;;;18.67;80.22;98974.53;4217607;28;21386;-73
2023/07/02 07:42:15;;;;;;;11.70;6.13;;;;;;;18.76;80.02;98988.75;4194573;28;20246;-73
2023/07/02 07:44:41;;;;;;;10.10;5.90;;;;;;;18.76;79.86;98977.78;4202710;28;20299;-74
2023/07/02 07:47:08;;;;;;;7.90;5.13;;;;;;;18.71;79.18;98985.84;4204744;28;20334;-73
2023/07/02 07:49:35;;;;;;;9.13;5.40;;;;;;;18.62;80.49;98990.88;4198127;28;20235;-73
2023/07/02 07:52:03;;;;;;;13.23;6.40;;;;;;;18.47;82.34;98988.56;4183340;28;20236;-74
2023/07/02 07:54:30;;;;;;;11.10;5.70;;;;;;;18.80;81.48;98985.28;4199252;28;23500;-75
2023/07/02 07:56:56;;;;;;;10.63;5.90;;;;;;;18.71;81.50;98994.09;4222782;28;20243;-75
2023/07/02 07:59:23;;;;;;;11.83;5.93;;;;;;;18.83;81.27;98992.22;4201056;28;20245;-74
2023/07/02 08:01:49;;;;;;;10.03;5.20;;;;;;;18.82;80.10;98985.88;4204679;28;21140;-72
2023/07/02 08:04:16;;;;;;;11.43;4.97;;;;;;;18.74;79.62;98983.47;4214330;28;20302;-73
2023/07/02 08:06:42;;;;;;;11.17;5.43;;;;;;;18.71;79.43;98980.38;4198010;28;20231;-74
2023/07/02 08:09:11;;;;;;;13.27;5.17;;;;;;;18.78;79.80;98986.56;4192549;28;20239;-73
2023/07/02 08:11:37;;;;;;;9.73;6.10;;;;;;;18.84;78.76;98988.41;4215643;28;20243;-72
2023/07/02 08:14:04;;;;;;;9.30;5.40;;;;;;;19.00;77.87;98990.44;4204239;28;20239;-73
2023/07/02 08:16:30;;;;;;;8.97;4.90;;;;;;;19.36;76.23;98995.91;4191036;28;25620;-73
2023/07/02 08:18:57;;;;;;;10.17;5.47;;;;;;;19.63;76.65;98998.13;4220363;28;20407;-74
2023/07/02 08:21:24;;;;;;;12.07;5.03;;;;;;;19.82;74.95;98997.94;4216974;28;20286;-73
2023/07/02 08:23:50;;;;;;;7.27;5.00;;;;;;;19.82;75.24;99006.19;4216247;28;20266;-73
2023/07/02 08:26:17;;;;;;;10.07;5.10;;;;;;;19.86;75.42;99000.00;4214647;28;20299;-74
2023/07/02 08:28:44;;;;;;;7.33;4.83;;;;;;;19.85;74.92;99003.00;4217223;28;20243;-74
2023/07/02 08:31:10;;;;;;;13.33;5.03;;;;;;;19.68;75.51;99008.38;4206772;28;20236;-76
2023/07/02 08:33:37;;;;;;;7.33;4.60;;;;;;;19.35;75.94;99007.94;4194356;28;20436;-74
2023/07/02 08:36:04;;;;;;;8.07;4.67;;;;;;;19.26;76.53;99006.66;4205389;28;20334;-77
2023/07/02 08:38:30;;;;;;;7.27;4.70;;;;;;;19.20;76.81;99013.09;4216444;28;20236;-73
2023/07/02 08:40:57;;;;;;;7.43;4.57;;;;;;;19.15;77.44;99013.81;4220325;28;20603;-73
2023/07/02 08:43:26;;;;;;;6.73;4.00;;;;;;;19.20;76.70;99010.34;4209504;28;20306;-73
2023/07/02 08:45:53;;;;;;;5.67;3.90;;;;;;;19.28;76.30;99010.84;4222552;28;20792;-73
2023/07/02 08:48:24;;;;;;;6.80;4.10;;;;;;;19.19;77.01;99023.25;4208364;28;20229;-74
2023/07/02 08:50:50;;;;;;;12.70;4.10;;;;;;;19.15;77.41;99020.16;4197061;28;21449;-73
2023/07/02 08:53:18;;;;;;;8.03;3.60;;;;;;;19.18;76.96;99021.56;4216473;28;20232;-74
2023/07/02 08:55:45;;;;;;;6.80;4.00;;;;;;;19.13;77.24;99019.53;4200272;28;20228;-73
2023/07/02 08:58:11;;;;;;;5.87;3.87;;;;;;;19.17;76.82;99019.91;4220591;28;22214;-73
2023/07/02 09:00:38;;;;;;;11.40;4.50;;;;;;;19.15;77.07;99019.28;4215193;28;22558;-73
2023/07/02 09:03:17;;;;;;;10.87;4.70;;;;;;;19.22;76.79;99013.69;4210054;28;20828;-73
2023/07/02 09:05:49;;;;;;;10.37;4.53;;;;;;;19.36;76.12;99023.34;4202503;28;20233;-73
2023/07/02 09:08:24;;;;;;;10.43;4.40;;;;;;;19.43;75.95;99017.75;4219807;28;20243;-73
2023/07/02 09:10:50;;;;;;;7.10;4.83;;;;;;;19.56;75.98;99017.47;4202860;28;20235;-72
2023/07/02 09:13:17;;;;;;;7.97;4.80;;;;;;;19.78;75.10;99025.06;4191276;28;20231;-72
2023/07/02 09:15:44;;;;;;;6.60;4.53;;;;;;;19.95;74.44;99026.00;4202156;28;20248;-73
2023/07/02 09:18:21;;;;;;;5.73;4.27;;;;;;;19.85;73.80;99022.22;4220606;28;20696;-74
2023/07/02 09:20:51;;;;;;;10.67;4.50;;;;;;;19.94;72.28;99018.00;4196530;28;27921;-73
2023/07/02 09:23:18;;;;;;;6.43;4.13;;;;;;;20.13;73.47;99024.13;4193857;28;20239;-73
2023/07/02 09:25:44;;;;;;;7.33;4.20;;;;;;;20.11;72.80;99020.81;4205465;28;20239;-75
2023/07/02 09:28:19;;;;;;;9.43;4.63;;;;;;;19.93;72.49;99030.09;4203589;28;23110;-74
2023/07/02 09:30:55;;;;;;;6.00;4.63;;;;;;;19.83;73.66;99021.59;4215433;28;20234;-72
2023/07/02 09:33:28;;;;;;;9.67;4.30;;;;;;;19.90;73.46;99030.56;4201484;28;20232;-73
2023/07/02 09:35:55;;;;;;;5.57;3.70;;;;;;;19.78;73.92;99033.28;4210068;28;25645;-74
2023/07/02 09:38:22;;;;;;;5.47;4.00;;;;;;;19.80;73.45;99022.91;4184567;28;20236;-72
2023/07/02 09:40:50;;;;;;;7.77;3.93;;;;;;;19.93;73.60;99028.16;4200222;28;20766;-75
2023/07/02 09:43:18;;;;;;;11.23;3.57;;;;;;;20.36;72.14;99038.84;4205032;28;20240;-72
2023/07/02 09:45:47;;;;;;;6.13;3.27;;;;;;;20.99;70.19;99036.13;4223014;28;20760;-73
2023/07/02 09:48:15;;;;;;;4.33;3.00;;;;;;;21.15;69.35;99032.53;4208268;28;22738;-72
2023/07/02 09:50:45;;;;;;;4.33;2.90;;;;;;;21.18;68.47;99037.53;4197855;28;20244;-72
2023/07/02 09:53:12;;;;;;;5.43;3.10;;;;;;;21.26;67.60;99038.19;4191930;28;20240;-73
2023/07/02 09:55:41;;;;;;;6.90;3.33;;;;;;;21.66;65.44;99034.38;4202330;28;20233;-73
2023/07/02 09:58:08;;;;;;;5.47;2.50;;;;;;;21.44;65.50;99026.88;4196806;28;20430;-71
2023/07/02 10:00:35;;;;;;;6.70;2.77;;;;;;;21.43;66.29;99025.22;4211969;28;20338;-75
2023/07/02 10:03:02;;;;;;;6.83;2.50;;;;;;;21.65;65.81;99017.03;4204466;28;21447;-77
2023/07/02 10:05:30;;;;;;;7.57;2.40;;;;;;;21.57;65.30;99016.56;4216229;28;22001;-73
2023/07/02 10:07:57;;;;;;;7.60;2.50;;;;;;;21.49;64.06;99013.19;4210826;28;21075;-73
2023/07/02 10:10:31;;;;;;;4.43;2.40;;;;;;;21.73;64.05;99023.16;4188658;28;20244;-74
2023/07/02 10:12:57;;;;;;;2.67;2.27;;;;;;;22.09;63.35;99004.31;4197544;28;20244;-74
2023/07/02 10:15:26;;;;;;;3.77;2.30;;;;;;;21.92;62.90;99005.22;4217279;28;20237;-73
2023/07/02 10:18:00;;;;;;;6.20;3.63;;;;;;;21.96;64.16;99011.03;4214369;28;20338;-74
2023/07/02 10:20:35;;;;;;;6.00;2.50;;;;;;;21.87;63.91;99009.81;4220611;28;20626;-74
2023/07/02 10:23:02;;;;;;;6.43;2.73;;;;;;;21.88;63.24;99011.50;4203444;28;20376;-73
2023/07/02 10:25:31;;;;;;;4.57;2.70;;;;;;;22.45;62.53;99016.56;4225860;28;20242;-73
2023/07/02 10:27:59;;;;;;;6.33;2.27;;;;;;;22.51;62.38;99014.66;4206158;28;20235;-73
2023/07/02 10:30:33;;;;;;;5.20;2.07;;;;;;;22.43;60.76;99010.47;4222839;28;21047;-76
2023/07/02 10:33:13;;;;;;;8.33;2.13;;;;;;;22.42;61.17;99008.00;4196697;28;20233;-73
2023/07/02 10:35:44;;;;;;;3.37;2.10;;;;;;;22.16;62.21;99002.19;4194750;28;21048;-76
2023/07/02 10:38:24;;;;;;;5.87;2.27;;;;;;;21.93;62.56;98995.84;4219062;28;20275;-72
2023/07/02 10:40:57;;;;;;;4.57;2.07;;;;;;;21.85;63.42;99001.81;4213341;28;20283;-73
2023/07/02 10:43:29;;;;;;;3.97;1.83;;;;;;;21.68;62.88;99004.66;4191590;28;20336;-71
2023/07/02 10:46:00;;;;;;;5.50;2.47;;;;;;;21.23;64.69;99003.72;4210228;28;20232;-74
2023/07/02 10:48:28;;;;;;;4.60;2.30;;;;;;;21.03;65.22;99004.28;4213020;28;20623;-74
2023/07/02 10:50:55;;;;;;;4.03;2.40;;;;;;;20.84;66.11;98992.72;4219180;28;20336;-74
2023/07/02 10:53:22;;;;;;;3.80;2.80;;;;;;;20.73;66.67;99003.53;4222671;28;20251;-74
2023/07/02 10:55:55;;;;;;;6.33;2.47;;;;;;;20.74;66.39;99016.19;4228363;28;20241;-74
2023/07/02 10:58:23;;;;;;;5.53;2.90;;;;;;;20.55;68.92;99011.97;4221370;28;20244;-72
2023/07/02 11:00:51;;;;;;;6.97;2.57;;;;;;;20.52;68.93;99013.31;4213015;28;20237;-74
2023/07/02 11:03:22;;;;;;;2.23;2.03;;;;;;;20.47;70.18;99028.91;4234499;28;20688;-73
2023/07/02 11:05:49;;;;;;;6.70;2.47;;;;;;;20.19;74.02;99023.19;4242976;28;20406;-71
2023/07/02 11:08:17;;;;;;;7.87;2.47;;;;;;;20.03;75.06;99023.94;4233313;28;20338;-73
2023/07/02 11:10:44;;;;;;;7.87;2.80;;;;;;;19.43;79.48;99039.69;4222248;28;20320;-74
2023/07/02 11:13:18;;;;;;;8.30;2.90;;;;;;;19.02;80.35;99053.28;4237580;28;20228;-74
2023/07/02 11:15:46;;;;;;;9.33;3.67;;;;;;;18.93;81.50;99033.59;4197203;28;21466;-72
2023/07/02 11:18:15;;;;;;;5.60;2.70;;;;;;;19.08;81.35;99041.38;4211450;28;20362;-71
2023/07/02 11:20:43;;;;;;;6.03;2.93;;;;;;;19.39;81.23;99041.22;4200502;28;20241;-72
2023/07/02 11:23:23;;;;;;;3.10;2.57;;;;;;;19.49;81.34;99035.97;4180961;28;20240;-75
2023/07/02 11:26:00;;;;;;;3.40;2.50;;;;;;;19.65;81.95;99037.13;4202795;28;20291;-73